Time;durP1;ratioP1;P1;durP2;ratioP2;P2;SDS_P1;SDS_P2;PMS_P1;PMS_P2;Temp;Humidity;BMP_temperature;BMP_pressure;BME280_temperature;BME280_humidity;BME280_pressure;Samples;Min_cycle;Max_cycle;Signal;HPM_P1;HPM_P2
2022/06/01 03:01:23;;;;;;;19.40;18.20;;;9.60;99.90;;;;;;5549386;23;20259;-77
2022/06/01 03:03:50;;;;;;;18.80;17.60;;;9.60;99.90;;;;;;5007559;28;20267;-77
2022/06/01 03:06:15;;;;;;;14.17;13.33;;;9.50;99.90;;;;;;4996539;28;20187;-77
2022/06/01 03:08:42;;;;;;;14.07;13.17;;;9.50;99.90;;;;;;5001224;28;20216;-80
2022/06/01 03:11:08;;;;;;;15.53;14.60;;;9.40;99.90;;;;;;5003717;28;20192;-77
2022/06/01 03:13:34;;;;;;;14.30;13.57;;;9.40;99.90;;;;;;5005531;28;20176;-80
2022/06/01 03:16:00;;;;;;;11.60;10.57;;;9.30;99.90;;;;;;5003545;23;20233;-76
2022/06/01 03:18:26;;;;;;;11.20;10.40;;;9.40;99.90;;;;;;4979481;28;20188;-76
2022/06/01 03:20:52;;;;;;;11.70;10.90;;;9.40;99.90;;;;;;4975074;28;20172;-76
2022/06/01 03:23:21;;;;;;;13.90;13.00;;;9.20;99.90;;;;;;4996806;28;20267;-76
2022/06/01 03:25:47;;;;;;;12.20;11.33;;;9.10;99.90;;;;;;4996335;28;20261;-76
2022/06/01 03:28:13;;;;;;;11.27;10.37;;;9.00;99.90;;;;;;4995493;28;20185;-75
2022/06/01 03:30:39;;;;;;;9.73;9.13;;;9.00;99.90;;;;;;4975063;28;20185;-76
2022/06/01 03:33:05;;;;;;;11.23;10.53;;;9.00;99.90;;;;;;4974603;28;20236;-77
2022/06/01 03:35:33;;;;;;;11.20;10.27;;;9.00;99.90;;;;;;4974643;28;20205;-77
2022/06/01 03:37:59;;;;;;;11.57;10.43;;;9.00;99.90;;;;;;4974067;28;20181;-77
2022/06/01 03:40:27;;;;;;;10.40;9.50;;;9.00;99.90;;;;;;4975419;28;20545;-77
2022/06/01 03:42:53;;;;;;;9.63;9.03;;;9.10;99.90;;;;;;4974524;28;20177;-78
2022/06/01 03:48:04;;;;;;;9.40;8.80;;;9.10;99.90;;;;;;4976400;28;20181;-78
2022/06/01 03:50:30;;;;;;;9.87;9.13;;;9.10;99.90;;;;;;4971865;28;20243;-78
2022/06/01 03:52:56;;;;;;;10.10;9.37;;;9.00;99.90;;;;;;4974644;28;20193;-78
2022/06/01 03:55:23;;;;;;;11.90;11.10;;;9.10;99.90;;;;;;4974570;28;20225;-77
2022/06/01 03:57:49;;;;;;;10.47;9.77;;;9.00;99.90;;;;;;4974668;28;20199;-77
2022/06/01 04:00:21;;;;;;;10.60;9.90;;;9.10;99.90;;;;;;4975075;28;20747;-77
2022/06/01 04:02:49;;;;;;;10.90;10.10;;;9.20;99.90;;;;;;4976669;28;20623;-77
2022/06/01 04:05:16;;;;;;;14.57;13.57;;;9.30;99.90;;;;;;4974585;28;20296;-77
2022/06/01 04:07:42;;;;;;;13.43;9.17;;;9.30;99.90;;;;;;4974630;28;20184;-78
2022/06/01 04:10:08;;;;;;;9.43;8.87;;;9.40;99.90;;;;;;4973590;28;20185;-77
2022/06/01 04:12:35;;;;;;;9.63;8.77;;;9.40;99.90;;;;;;4973526;28;20224;-77
2022/06/01 04:15:02;;;;;;;9.30;8.60;;;9.60;99.90;;;;;;4975073;28;20247;-77
2022/06/01 04:17:28;;;;;;;11.80;11.00;;;9.60;99.90;;;;;;4974944;28;20185;-78
2022/06/01 04:19:54;;;;;;;14.13;13.23;;;9.70;99.90;;;;;;4973530;28;20788;-78
2022/06/01 04:22:20;;;;;;;12.97;12.10;;;9.70;99.90;;;;;;4973259;28;20272;-77
2022/06/01 04:24:46;;;;;;;19.77;18.40;;;9.70;99.90;;;;;;4974800;28;20197;-78
2022/06/01 04:27:11;;;;;;;59.20;56.07;;;9.80;99.90;;;;;;4972445;28;20184;-77
2022/06/01 04:29:37;;;;;;;64.23;61.03;;;9.80;99.90;;;;;;4974589;28;20589;-78
2022/06/01 04:32:09;;;;;;;54.47;51.57;;;9.90;99.90;;;;;;4973211;28;20563;-77
2022/06/01 04:34:36;;;;;;;30.73;28.97;;;10.00;99.90;;;;;;4974463;28;20201;-77
2022/06/01 04:37:02;;;;;;;49.13;46.47;;;10.10;99.90;;;;;;4974198;28;20854;-78
2022/06/01 04:39:27;;;;;;;15.30;14.30;;;10.20;99.90;;;;;;4972872;28;20299;-78
2022/06/01 04:41:53;;;;;;;10.73;10.00;;;10.30;99.90;;;;;;4974215;28;20177;-77
2022/06/01 04:44:20;;;;;;;11.33;10.63;;;10.30;99.90;;;;;;4973231;28;20201;-77
2022/06/01 04:46:46;;;;;;;14.00;12.80;;;10.50;99.90;;;;;;4974168;28;20272;-78
2022/06/01 04:49:12;;;;;;;13.90;13.10;;;10.70;99.90;;;;;;4974570;28;20185;-77
2022/06/01 04:51:38;;;;;;;11.97;11.10;;;10.90;99.90;;;;;;4973523;28;20189;-77
2022/06/01 04:54:06;;;;;;;12.90;6.80;;;11.10;99.90;;;;;;4978711;28;20216;-77
2022/06/01 04:56:32;;;;;;;8.63;7.83;;;11.40;99.90;;;;;;4973630;28;20192;-78
2022/06/01 04:58:58;;;;;;;23.60;22.30;;;11.60;99.90;;;;;;4973725;28;20307;-77
2022/06/01 05:01:23;;;;;;;24.70;22.97;;;11.80;99.90;;;;;;4973867;28;20712;-77
2022/06/01 05:03:49;;;;;;;10.37;9.60;;;12.10;99.90;;;;;;4973837;28;20684;-78
2022/06/01 05:06:15;;;;;;;17.10;16.00;;;12.50;99.90;;;;;;4973421;28;20197;-78
2022/06/01 05:08:41;;;;;;;8.13;7.43;;;13.10;99.90;;;;;;4972708;28;20216;-78
2022/06/01 05:11:07;;;;;;;17.13;16.17;;;13.70;99.90;;;;;;4973745;28;20193;-81
2022/06/01 05:13:33;;;;;;;26.00;24.43;;;14.40;99.90;;;;;;4973592;28;20189;-78
2022/06/01 05:16:01;;;;;;;12.37;11.67;;;14.90;99.90;;;;;;4970064;28;20688;-78
2022/06/01 05:18:27;;;;;;;7.80;6.87;;;15.50;99.90;;;;;;4971740;28;20195;-77
2022/06/01 05:20:54;;;;;;;7.60;6.97;;;16.20;99.90;;;;;;4972212;28;20277;-77
2022/06/01 05:23:21;;;;;;;25.57;24.27;;;16.70;99.90;;;;;;4973055;28;20212;-77
2022/06/01 05:25:49;;;;;;;44.30;42.10;;;17.10;99.90;;;;;;4974259;28;20208;-77
2022/06/01 05:28:24;;;;;;;16.23;15.43;;;17.40;99.90;;;;;;4974078;28;20200;-77
2022/06/01 05:30:50;;;;;;;7.27;6.73;;;17.80;99.90;;;;;;4972503;28;20181;-70
2022/06/01 05:33:17;;;;;;;7.73;7.23;;;18.10;99.90;;;;;;4973339;28;20183;-71
2022/06/01 05:35:43;;;;;;;16.20;15.40;;;18.20;99.90;;;;;;4973146;28;20713;-71
2022/06/01 05:38:09;;;;;;;14.93;13.93;;;18.50;99.90;;;;;;4973081;28;20181;-71
2022/06/01 05:40:36;;;;;;;23.25;21.83;;;18.80;99.90;;;;;;4964993;28;20240;-71
2022/06/01 05:43:11;;;;;;;35.47;33.58;;;19.00;99.90;;;;;;4953994;28;20209;-71
2022/06/01 05:45:37;;;;;;;42.28;40.03;;;19.50;99.90;;;;;;4963607;28;20584;-70
2022/06/01 05:48:04;;;;;;;33.55;31.52;;;19.80;99.90;;;;;;4972513;28;20181;-72
2022/06/01 05:50:30;;;;;;;17.13;16.13;;;20.00;99.90;;;;;;4972977;28;20272;-77
2022/06/01 05:52:55;;;;;;;13.48;12.68;;;20.20;99.90;;;;;;4973052;28;20268;-76
2022/06/01 05:55:21;;;;;;;11.43;10.73;;;20.60;99.90;;;;;;4972511;28;20660;-77
2022/06/01 05:57:47;;;;;;;7.53;7.13;;;20.70;99.90;;;;;;4972717;28;20668;-76
2022/06/01 06:00:16;;;;;;;7.28;6.78;;;20.90;99.90;;;;;;4972889;28;20612;-76
2022/06/01 06:02:42;;;;;;;6.43;5.93;;;21.20;99.90;;;;;;4972545;28;21079;-77
2022/06/01 06:07:55;;;;;;;5.35;4.85;;;21.00;99.90;;;;;;4973299;28;20712;-77
2022/06/01 06:10:21;;;;;;;5.22;4.93;;;21.00;99.90;;;;;;4974050;28;20224;-78
2022/06/01 06:12:47;;;;;;;6.32;5.70;;;21.20;99.90;;;;;;4973494;28;20205;-78
2022/06/01 06:15:14;;;;;;;6.53;6.13;;;21.60;99.90;;;;;;4975079;28;20217;-77
2022/06/01 06:17:40;;;;;;;5.97;5.57;;;21.70;99.90;;;;;;4972630;28;20200;-77
2022/06/01 06:20:07;;;;;;;7.55;7.15;;;22.20;99.00;;;;;;4972335;28;20205;-77
2022/06/01 06:22:33;;;;;;;6.78;6.20;;;22.30;98.50;;;;;;4971514;28;20191;-77
2022/06/01 06:24:59;;;;;;;7.05;6.50;;;22.30;97.10;;;;;;4972241;28;20197;-77
2022/06/01 06:27:26;;;;;;;6.82;6.25;;;22.00;98.10;;;;;;4972266;28;20188;-77
2022/06/01 06:29:53;;;;;;;8.70;8.02;;;22.30;97.10;;;;;;4971148;28;20314;-77
2022/06/01 06:32:19;;;;;;;9.20;8.52;;;22.60;97.40;;;;;;4972545;28;20657;-77
2022/06/01 06:34:45;;;;;;;10.45;9.63;;;23.10;95.50;;;;;;4972023;28;20264;-71
2022/06/01 06:37:11;;;;;;;5.60;5.20;;;23.40;95.20;;;;;;4972101;28;20185;-72
2022/06/01 06:39:37;;;;;;;5.32;4.93;;;23.80;94.40;;;;;;4971910;28;20215;-71
2022/06/01 06:42:03;;;;;;;4.95;4.40;;;23.90;93.40;;;;;;4972648;28;20173;-71
2022/06/01 06:44:29;;;;;;;5.68;4.65;;;23.50;92.80;;;;;;4971449;28;20203;-70
2022/06/01 06:46:55;;;;;;;4.30;4.03;;;23.30;93.40;;;;;;4971719;28;20285;-70
2022/06/01 06:49:21;;;;;;;5.18;4.88;;;23.50;92.80;;;;;;4971977;28;20268;-71
2022/06/01 06:51:48;;;;;;;6.70;6.30;;;23.30;93.40;;;;;;4977940;28;20230;-71
2022/06/01 06:54:14;;;;;;;5.28;4.90;;;23.60;93.40;;;;;;4964080;28;20736;-71
2022/06/01 06:56:40;;;;;;;4.93;4.63;;;24.20;92.10;;;;;;4970499;28;20258;-71
2022/06/01 06:59:06;;;;;;;5.15;4.85;;;24.60;92.00;;;;;;4971748;28;20665;-71
2022/06/01 07:01:32;;;;;;;7.97;6.90;;;24.50;91.60;;;;;;4972467;28;20332;-71
2022/06/01 07:03:58;;;;;;;7.65;7.18;;;24.80;89.50;;;;;;4972164;28;20271;-71
2022/06/01 07:06:24;;;;;;;6.80;6.40;;;24.90;88.60;;;;;;4972106;28;20208;-71
2022/06/01 07:08:53;;;;;;;8.93;8.43;;;24.80;88.90;;;;;;4971680;28;20272;-71
2022/06/01 07:11:20;;;;;;;8.90;8.13;;;24.70;88.00;;;;;;4972179;28;20181;-72
2022/06/01 07:13:47;;;;;;;9.52;8.93;;;24.60;87.80;;;;;;4971998;28;20551;-71
2022/06/01 07:16:14;;;;;;;8.68;8.05;;;24.90;87.60;;;;;;4972014;28;20221;-70
2022/06/01 07:18:46;;;;;;;8.25;6.70;;;25.30;87.10;;;;;;4971213;28;20230;-71
2022/06/01 07:21:14;;;;;;;6.75;4.75;;;25.60;87.00;;;;;;4971977;28;20662;-71
2022/06/01 07:23:41;;;;;;;6.53;5.93;;;25.70;84.40;;;;;;4971749;28;20875;-71
2022/06/01 07:26:11;;;;;;;5.25;5.00;;;25.60;84.70;;;;;;4971786;28;20271;-72
2022/06/01 07:28:37;;;;;;;5.30;5.00;;;25.40;86.00;;;;;;4971468;28;20684;-71
2022/06/01 07:31:04;;;;;;;6.63;6.05;;;25.70;83.90;;;;;;4971780;28;20676;-71
2022/06/01 07:33:30;;;;;;;5.57;5.28;;;25.80;80.80;;;;;;4970511;28;20265;-71
2022/06/01 07:35:58;;;;;;;5.68;4.50;;;25.70;80.80;;;;;;4972165;28;20197;-72
2022/06/01 07:43:59;;;;;;;5.40;5.13;;;25.80;82.70;;;;;;4975611;28;20192;-72
2022/06/01 07:46:25;;;;;;;5.32;4.90;;;25.80;81.30;;;;;;4975563;28;20177;-72
2022/06/01 07:48:53;;;;;;;5.63;5.13;;;25.50;80.60;;;;;;4975590;28;20189;-72
2022/06/01 07:51:20;;;;;;;4.93;4.43;;;25.60;79.70;;;;;;4975470;28;20238;-72
2022/06/01 07:53:46;;;;;;;5.22;4.30;;;25.80;79.70;;;;;;4975780;28;20645;-72
2022/06/01 07:56:12;;;;;;;8.00;5.65;;;25.70;77.50;;;;;;4975091;28;20197;-72
2022/06/01 07:58:38;;;;;;;4.35;4.13;;;26.00;77.10;;;;;;4974696;28;20197;-72
2022/06/01 08:01:05;;;;;;;4.15;3.95;;;26.30;77.10;;;;;;4975095;28;20653;-72
2022/06/01 08:03:30;;;;;;;5.50;5.13;;;26.30;76.60;;;;;;4958779;28;20245;-71
2022/06/01 08:05:56;;;;;;;4.55;4.25;;;26.10;75.20;;;;;;4955630;28;20205;-72
2022/06/01 08:08:22;;;;;;;4.93;4.53;;;25.90;76.10;;;;;;4963533;28;20181;-72
2022/06/01 08:10:49;;;;;;;4.57;4.20;;;26.20;73.90;;;;;;4974459;28;20181;-72
2022/06/01 08:13:15;;;;;;;5.78;5.38;;;26.50;73.10;;;;;;4974492;28;20570;-71
2022/06/01 08:15:48;;;;;;;5.57;5.07;;;26.70;74.30;;;;;;4974421;28;20248;-72
2022/06/01 08:18:20;;;;;;;5.03;4.40;;;26.80;72.90;;;;;;4974039;28;20280;-72
2022/06/01 08:20:46;;;;;;;4.90;4.25;;;26.60;73.60;;;;;;4974677;28;20316;-72
2022/06/01 08:23:12;;;;;;;5.43;5.03;;;26.40;70.30;;;;;;4974318;28;20208;-72
2022/06/01 08:25:40;;;;;;;5.32;5.13;;;26.00;72.90;;;;;;4974165;28;20208;-71
2022/06/01 08:28:07;;;;;;;4.47;4.18;;;25.80;73.10;;;;;;4973897;28;20552;-72
2022/06/01 08:30:35;;;;;;;5.15;4.68;;;25.70;67.90;;;;;;4974618;28;20661;-71
2022/06/01 08:33:02;;;;;;;3.97;3.78;;;25.90;67.40;;;;;;4973998;28;20184;-72
2022/06/01 08:35:31;;;;;;;4.38;4.18;;;25.90;61.10;;;;;;4974307;28;20209;-71
2022/06/01 08:37:58;;;;;;;4.82;4.53;;;26.20;62.00;;;;;;4973897;28;20191;-72
2022/06/01 08:40:48;;;;;;;3.80;3.60;;;26.40;61.00;;;;;;4974003;28;20208;-72
2022/06/01 08:43:16;;;;;;;4.20;3.97;;;26.70;62.80;;;;;;4974087;28;20661;-72
2022/06/01 08:45:48;;;;;;;4.63;3.83;;;26.80;59.00;;;;;;4973626;28;20669;-72
2022/06/01 08:48:19;;;;;;;4.00;3.80;;;26.70;54.80;;;;;;4973712;28;20192;-72
2022/06/01 08:50:46;;;;;;;3.53;3.33;;;26.90;55.40;;;;;;4973984;28;20185;-72
2022/06/01 08:53:12;;;;;;;3.10;3.00;;;27.10;53.10;;;;;;4973624;28;20193;-72
2022/06/01 08:55:53;;;;;;;4.10;3.60;;;27.20;51.90;;;;;;4973674;28;20251;-71
2022/06/01 08:58:25;;;;;;;3.47;3.38;;;27.80;55.10;;;;;;4973218;28;20196;-72
2022/06/01 09:01:28;;;;;;;5.30;4.03;;;27.50;54.40;;;;;;4975275;28;20600;-72
2022/06/01 09:04:15;;;;;;;3.67;3.35;;;26.70;56.80;;;;;;4973571;28;20224;-72
2022/06/01 09:06:48;;;;;;;3.70;3.40;;;26.10;59.00;;;;;;4973672;28;20637;-72
2022/06/01 09:09:26;;;;;;;3.72;3.53;;;25.50;60.70;;;;;;4973141;28;20668;-72
2022/06/01 09:11:53;;;;;;;3.45;3.35;;;24.80;61.50;;;;;;4973645;28;20677;-72
2022/06/01 09:14:32;;;;;;;4.55;4.22;;;24.70;58.90;;;;;;4972967;28;20209;-72
2022/06/01 09:16:59;;;;;;;4.00;3.80;;;24.70;58.60;;;;;;4992859;23;20233;-69
2022/06/01 09:19:27;;;;;;;4.47;4.28;;;25.10;58.00;;;;;;4971969;28;20227;-70
2022/06/01 09:24:39;;;;;;;6.25;5.90;;;26.60;55.30;;;;;;4972938;28;20185;-70
2022/06/01 09:27:11;;;;;;;4.00;3.90;;;26.80;53.50;;;;;;4972772;28;20197;-70
2022/06/01 09:29:50;;;;;;;4.35;3.95;;;27.20;54.00;;;;;;4973070;28;20189;-70
2022/06/01 09:32:30;;;;;;;3.30;3.10;;;27.20;52.60;;;;;;4972910;28;20644;-69
2022/06/01 09:35:03;;;;;;;3.55;3.25;;;27.10;52.20;;;;;;4973118;28;20191;-70
2022/06/01 09:37:46;;;;;;;4.35;4.03;;;27.30;53.90;;;;;;4972657;28;20707;-69
2022/06/01 09:40:31;;;;;;;7.18;6.78;;;28.20;52.50;;;;;;4973078;28;20248;-69
2022/06/01 09:43:01;;;;;;;7.97;7.30;;;28.20;49.70;;;;;;4972176;28;20181;-69
2022/06/01 09:45:29;;;;;;;6.13;5.82;;;27.40;51.60;;;;;;4972413;28;20197;-69
2022/06/01 09:48:13;;;;;;;5.20;4.90;;;27.00;52.40;;;;;;4972822;28;20178;-69
2022/06/01 09:50:43;;;;;;;3.67;3.47;;;26.20;53.10;;;;;;4973635;28;20185;-69
2022/06/01 09:53:19;;;;;;;4.97;4.72;;;25.60;55.20;;;;;;4972357;28;20676;-69
2022/06/01 09:56:00;;;;;;;4.93;4.65;;;25.20;57.20;;;;;;4971920;28;20595;-69
2022/06/01 10:06:57;;;;;;;3.92;3.70;;;26.10;61.20;;;;;;4966616;28;20212;-68
2022/06/01 10:09:27;;;;;;;6.30;4.25;;;26.40;59.20;;;;;;4965449;28;20244;-70
2022/06/01 10:11:54;;;;;;;4.10;3.90;;;26.10;60.60;;;;;;4973975;28;20208;-70
2022/06/01 10:14:37;;;;;;;4.05;3.85;;;25.80;61.70;;;;;;4973024;28;20185;-70
2022/06/01 10:17:06;;;;;;;3.95;3.65;;;25.90;59.10;;;;;;4970868;28;20741;-71
2022/06/01 10:19:58;;;;;;;5.03;4.60;;;25.50;60.00;;;;;;4972616;28;20197;-70
2022/06/01 10:22:39;;;;;;;4.85;4.63;;;25.20;61.90;;;;;;4972403;28;20203;-70
2022/06/01 10:25:28;;;;;;;4.40;4.10;;;26.00;60.70;;;;;;4971389;28;20181;-70
2022/06/01 10:27:58;;;;;;;4.32;3.92;;;26.20;61.90;;;;;;4972097;28;20181;-70
2022/06/01 10:30:36;;;;;;;7.32;4.28;;;25.60;59.60;;;;;;4972624;28;20189;-70
2022/06/01 10:33:11;;;;;;;6.97;6.68;;;24.90;60.80;;;;;;4976786;28;20180;-69
2022/06/01 10:35:58;;;;;;;7.90;7.38;;;24.40;63.60;;;;;;4990932;28;20209;-69
2022/06/01 10:38:41;;;;;;;5.85;5.35;;;24.20;63.10;;;;;;4971873;28;20192;-70
2022/06/01 10:41:09;;;;;;;7.93;7.53;;;24.50;63.30;;;;;;4972428;28;20181;-70
2022/06/01 10:44:12;;;;;;;6.30;6.10;;;25.10;60.40;;;;;;4972073;28;20173;-70
2022/06/01 10:46:47;;;;;;;4.53;4.32;;;25.80;59.00;;;;;;4972195;28;20200;-69
2022/06/01 10:49:27;;;;;;;4.97;4.47;;;26.70;58.00;;;;;;4972147;28;20223;-70
2022/06/01 10:52:07;;;;;;;4.20;4.00;;;27.40;56.00;;;;;;4972131;28;20196;-70
2022/06/01 10:54:45;;;;;;;4.43;4.05;;;27.70;55.50;;;;;;4972293;28;20614;-70
2022/06/01 10:57:20;;;;;;;6.18;5.88;;;27.80;53.60;;;;;;4971712;28;20206;-70
2022/06/01 10:59:47;;;;;;;8.18;7.80;;;28.30;53.00;;;;;;4971989;28;20205;-70
2022/06/01 11:02:44;;;;;;;10.52;9.93;;;29.40;53.00;;;;;;4971967;28;20268;-70
2022/06/01 11:05:32;;;;;;;8.35;7.82;;;29.30;52.50;;;;;;4971927;28;20252;-73
2022/06/01 11:08:15;;;;;;;15.35;14.60;;;28.40;53.60;;;;;;4967756;28;20192;-73
2022/06/01 11:11:03;;;;;;;9.90;9.43;;;27.80;54.70;;;;;;4964809;28;20716;-73
2022/06/01 11:13:59;;;;;;;15.98;15.20;;;27.70;56.20;;;;;;4972866;28;20219;-74
2022/06/01 11:16:50;;;;;;;11.02;10.50;;;27.90;53.30;;;;;;4981505;28;20252;-73
2022/06/01 11:19:15;;;;;;;4.28;4.07;;;27.00;53.80;;;;;;4975318;28;20307;-72
2022/06/01 11:21:47;;;;;;;4.28;4.00;;;26.20;55.70;;;;;;4975744;28;20216;-73
2022/06/01 11:24:51;;;;;;;5.75;5.07;;;25.70;57.40;;;;;;4975370;28;20668;-73
2022/06/01 11:27:19;;;;;;;3.88;3.63;;;26.30;57.30;;;;;;4975198;28;20228;-73
2022/06/01 11:29:57;;;;;;;5.80;5.43;;;27.20;52.70;;;;;;4975657;28;20201;-73
2022/06/01 11:32:32;;;;;;;10.57;10.07;;;28.30;53.10;;;;;;4975515;28;20201;-73
2022/06/01 11:35:06;;;;;;;7.35;6.95;;;29.30;52.30;;;;;;4975411;28;20269;-73
2022/06/01 11:37:40;;;;;;;6.25;5.85;;;30.10;50.70;;;;;;4975034;28;20185;-72
2022/06/01 11:40:15;;;;;;;23.08;21.92;;;30.10;47.20;;;;;;4975287;28;20220;-73
2022/06/01 11:42:48;;;;;;;22.70;21.50;;;29.60;44.90;;;;;;4979725;28;20554;-73
2022/06/01 11:45:24;;;;;;;13.88;13.20;;;29.00;46.20;;;;;;4976821;28;20209;-73
2022/06/01 11:47:54;;;;;;;8.98;8.35;;;28.40;48.00;;;;;;4975049;28;20200;-73
2022/06/01 11:50:44;;;;;;;3.72;3.60;;;27.80;47.50;;;;;;4975113;28;20193;-73
2022/06/01 11:53:41;;;;;;;4.82;4.53;;;28.10;49.20;;;;;;4975245;28;20188;-73
2022/06/01 11:56:30;;;;;;;5.07;4.75;;;28.60;50.50;;;;;;4975468;28;20696;-73
2022/06/01 11:59:13;;;;;;;4.53;4.32;;;27.90;50.20;;;;;;4982178;28;20284;-73
2022/06/01 12:01:41;;;;;;;4.10;3.70;;;27.30;50.80;;;;;;4980564;28;20601;-73
2022/06/01 12:04:32;;;;;;;4.95;4.07;;;28.40;50.70;;;;;;4976212;28;20169;-73
2022/06/01 12:07:22;;;;;;;8.00;7.68;;;30.00;47.90;;;;;;4974378;28;20584;-73
2022/06/01 12:10:31;;;;;;;23.90;22.75;;;31.30;45.80;;;;;;4974936;28;20188;-73
2022/06/01 12:13:26;;;;;;;9.07;8.68;;;32.30;45.10;;;;;;4974689;28;20216;-73
2022/06/01 12:16:27;;;;;;;8.00;7.47;;;32.60;39.70;;;;;;4974544;28;20251;-73
2022/06/01 12:18:58;;;;;;;16.23;15.43;;;32.90;38.80;;;;;;4971383;28;20196;-73
2022/06/01 12:21:24;;;;;;;17.40;16.58;;;32.30;36.20;;;;;;4975003;28;20185;-73
2022/06/01 12:30:05;;;;;;;9.10;8.48;;;28.00;42.60;;;;;;4974396;28;20187;-73
2022/06/01 12:32:58;;;;;;;17.48;16.52;;;27.60;42.50;;;;;;4974417;28;20185;-73
2022/06/01 12:35:26;;;;;;;31.23;29.80;;;26.70;42.90;;;;;;4974443;28;20209;-73
2022/06/01 12:38:03;;;;;;;6.88;6.45;;;25.90;43.60;;;;;;4974384;28;20181;-72
2022/06/01 12:40:29;;;;;;;11.18;10.57;;;26.20;46.30;;;;;;4973145;28;20670;-72
2022/06/01 12:42:58;;;;;;;8.80;8.18;;;27.10;43.40;;;;;;4974254;28;20195;-73
2022/06/01 12:45:34;;;;;;;21.35;20.25;;;28.50;43.80;;;;;;4974273;28;20205;-74
2022/06/01 12:48:05;;;;;;;18.63;17.73;;;29.90;41.80;;;;;;4973828;28;20185;-71
2022/06/01 12:50:44;;;;;;;9.80;9.32;;;30.70;40.20;;;;;;4987274;28;20189;-72
2022/06/01 12:53:20;;;;;;;9.32;8.82;;;30.50;40.60;;;;;;4978041;28;20199;-72
2022/06/01 12:55:47;;;;;;;19.77;18.88;;;29.10;40.80;;;;;;4973883;28;20681;-72
2022/06/01 12:58:21;;;;;;;21.42;20.48;;;28.00;42.20;;;;;;4973372;28;20556;-72
2022/06/01 13:00:56;;;;;;;29.52;28.00;;;27.80;41.50;;;;;;4973741;28;20846;-72
2022/06/01 13:03:28;;;;;;;31.35;29.85;;;27.80;42.80;;;;;;4973467;28;20177;-73
2022/06/01 13:05:56;;;;;;;25.92;24.73;;;27.90;43.20;;;;;;4972739;28;20577;-71
2022/06/01 13:08:28;;;;;;;32.40;30.77;;;28.10;41.70;;;;;;4972146;28;20181;-72
2022/06/01 13:10:54;;;;;;;28.08;26.67;;;28.30;42.70;;;;;;4973784;28;20185;-71
2022/06/01 13:13:27;;;;;;;27.45;25.95;;;28.00;43.10;;;;;;4973548;28;20212;-72
2022/06/01 13:16:04;;;;;;;29.45;27.73;;;28.40;43.30;;;;;;4958369;28;20225;-71
2022/06/01 13:18:42;;;;;;;25.45;24.25;;;28.00;44.70;;;;;;4952737;29;20719;-72
2022/06/01 13:21:29;;;;;;;18.80;17.92;;;27.80;45.10;;;;;;4956446;28;22354;-71
2022/06/01 13:24:01;;;;;;;10.52;10.05;;;27.60;45.80;;;;;;4962106;28;20182;-71
2022/06/01 13:26:37;;;;;;;16.10;15.23;;;27.40;46.90;;;;;;4954137;28;20209;-71
2022/06/01 13:29:19;;;;;;;6.70;6.40;;;27.20;44.30;;;;;;4952441;28;20185;-72
2022/06/01 13:31:48;;;;;;;12.00;11.50;;;27.30;46.80;;;;;;4952836;28;20189;-72
2022/06/01 13:34:32;;;;;;;19.30;18.40;;;28.60;44.50;;;;;;4954231;28;20632;-71
2022/06/01 13:37:25;;;;;;;27.15;25.85;;;29.00;44.50;;;;;;4951908;28;20302;-72
2022/06/01 13:40:07;;;;;;;26.90;25.45;;;29.20;42.90;;;;;;4952911;28;20245;-72
2022/06/01 13:42:36;;;;;;;42.85;40.80;;;29.00;43.90;;;;;;4954267;28;20237;-74
2022/06/01 13:45:04;;;;;;;36.65;34.92;;;29.00;45.30;;;;;;4954124;28;20209;-73
2022/06/01 13:48:04;;;;;;;22.73;21.27;;;28.20;45.20;;;;;;4964248;28;20197;-74
2022/06/01 13:50:38;;;;;;;7.78;7.28;;;27.40;46.60;;;;;;4945392;29;20189;-73
2022/06/01 13:53:22;;;;;;;4.07;3.88;;;26.40;48.00;;;;;;4955820;28;20196;-74
2022/06/01 13:56:13;;;;;;;6.28;5.82;;;25.90;50.20;;;;;;4953889;28;20201;-74
2022/06/01 13:58:53;;;;;;;11.55;11.00;;;25.60;51.90;;;;;;4975155;28;20170;-74
2022/06/01 14:01:31;;;;;;;7.80;7.38;;;25.40;52.30;;;;;;4954587;28;20189;-74
2022/06/01 14:04:00;;;;;;;11.15;10.45;;;25.20;50.70;;;;;;4953558;29;20181;-74
2022/06/01 14:06:32;;;;;;;9.05;8.45;;;25.00;51.30;;;;;;4955848;28;20205;-73
2022/06/01 14:09:00;;;;;;;8.25;6.50;;;24.70;52.60;;;;;;4961226;28;20182;-73
2022/06/01 14:11:31;;;;;;;12.80;8.20;;;24.50;53.20;;;;;;4953753;28;20276;-73
2022/06/01 14:14:07;;;;;;;6.10;5.65;;;24.40;54.10;;;;;;4952238;28;20249;-73
2022/06/01 14:16:44;;;;;;;5.88;5.38;;;24.30;54.10;;;;;;4953085;28;20221;-73
2022/06/01 14:19:10;;;;;;;4.97;4.68;;;24.60;53.80;;;;;;4953139;28;20225;-73
2022/06/01 14:21:36;;;;;;;6.70;6.20;;;25.70;53.10;;;;;;4953148;28;20182;-73
2022/06/01 14:24:02;;;;;;;9.95;9.32;;;26.90;51.00;;;;;;4953214;28;20182;-74
2022/06/01 14:29:12;;;;;;;5.22;4.50;;;29.10;47.10;;;;;;4953119;28;20189;-73
2022/06/01 14:31:39;;;;;;;8.77;8.23;;;30.00;46.30;;;;;;4953683;28;20189;-73
2022/06/01 14:34:14;;;;;;;30.38;28.48;;;30.10;45.70;;;;;;4954712;28;20185;-74
2022/06/01 14:36:41;;;;;;;36.97;34.65;;;30.00;44.40;;;;;;4953441;28;20300;-73
2022/06/01 14:39:07;;;;;;;24.38;22.80;;;29.00;46.00;;;;;;4952608;28;20296;-73
2022/06/01 14:41:42;;;;;;;17.73;16.42;;;28.40;47.00;;;;;;4951935;29;20189;-73
2022/06/01 14:44:19;;;;;;;6.50;5.90;;;27.90;47.60;;;;;;4952976;28;20182;-74
2022/06/01 14:46:46;;;;;;;5.75;5.35;;;27.60;48.90;;;;;;4952633;28;20331;-74
2022/06/01 14:49:13;;;;;;;6.32;5.93;;;28.20;48.70;;;;;;4956520;28;20185;-74
2022/06/01 14:51:43;;;;;;;11.18;10.50;;;29.00;47.40;;;;;;4956900;29;20181;-74
2022/06/01 14:54:09;;;;;;;9.55;9.02;;;29.10;46.60;;;;;;4956984;28;20186;-73
2022/06/01 14:56:36;;;;;;;14.52;13.50;;;28.90;47.50;;;;;;4957043;28;20291;-73
2022/06/01 14:59:05;;;;;;;25.83;24.52;;;29.30;47.20;;;;;;4956540;28;20212;-74
2022/06/01 15:01:38;;;;;;;49.08;46.58;;;30.00;45.90;;;;;;4957162;28;20186;-73
2022/06/01 15:04:08;;;;;;;37.38;35.35;;;29.70;44.50;;;;;;4956144;28;20185;-73
2022/06/01 15:06:34;;;;;;;22.70;21.30;;;28.90;46.80;;;;;;4959820;28;20288;-74
2022/06/01 15:09:00;;;;;;;15.23;14.40;;;28.40;48.00;;;;;;4961908;28;20283;-73
2022/06/01 15:11:25;;;;;;;6.45;6.05;;;28.10;48.00;;;;;;4955497;28;20337;-73
2022/06/01 15:13:51;;;;;;;5.45;5.05;;;27.60;49.90;;;;;;4956611;28;20189;-73
2022/06/01 15:16:18;;;;;;;5.45;5.15;;;27.60;50.50;;;;;;4994714;23;20224;-75
2022/06/01 15:18:46;;;;;;;6.53;6.20;;;28.00;48.60;;;;;;4994689;28;20180;-74
2022/06/01 15:21:13;;;;;;;16.80;10.88;;;28.80;48.20;;;;;;4995498;28;20185;-73
2022/06/01 15:23:40;;;;;;;14.95;14.20;;;29.40;46.20;;;;;;4995554;28;20176;-74
2022/06/01 15:26:06;;;;;;;12.23;11.55;;;29.00;46.10;;;;;;4994438;28;20205;-76
2022/06/01 15:28:34;;;;;;;15.55;14.55;;;28.90;47.40;;;;;;4995120;28;20180;-75
2022/06/01 15:39:31;;;;;;;5.93;5.40;;;27.10;48.70;;;;;;4995056;28;20563;-75
2022/06/01 15:42:00;;;;;;;9.15;8.45;;;26.40;50.00;;;;;;4994982;28;20187;-74
2022/06/01 15:44:27;;;;;;;11.88;11.18;;;25.60;51.10;;;;;;4994919;28;20180;-74
2022/06/01 15:46:53;;;;;;;7.43;6.68;;;25.20;52.80;;;;;;4994705;28;20196;-74
2022/06/01 15:49:20;;;;;;;7.82;7.15;;;25.00;54.30;;;;;;4994852;28;20244;-74
2022/06/01 15:52:16;;;;;;;8.27;7.55;;;24.90;55.00;;;;;;4994879;28;20220;-75
2022/06/01 15:54:42;;;;;;;8.05;7.35;;;24.70;55.60;;;;;;4994871;28;20880;-75
2022/06/01 15:57:11;;;;;;;7.05;6.28;;;24.70;55.60;;;;;;4994299;28;20200;-74
2022/06/01 15:59:38;;;;;;;7.10;5.63;;;24.70;55.30;;;;;;4994281;28;20223;-75
2022/06/01 16:02:11;;;;;;;5.57;5.18;;;24.70;56.50;;;;;;4996368;28;20254;-75
2022/06/01 16:04:42;;;;;;;5.68;5.32;;;25.90;55.10;;;;;;4995145;28;20203;-74
2022/06/01 16:07:07;;;;;;;14.05;13.20;;;27.30;52.80;;;;;;4997123;28;20199;-74
2022/06/01 16:09:33;;;;;;;7.50;6.97;;;28.70;49.00;;;;;;4999360;28;20187;-76
2022/06/01 16:12:08;;;;;;;7.13;6.72;;;28.20;48.40;;;;;;4990207;28;20188;-74
2022/06/01 16:14:34;;;;;;;11.50;10.63;;;27.10;49.70;;;;;;4994690;28;20183;-75
2022/06/01 16:17:01;;;;;;;10.80;9.80;;;26.30;51.90;;;;;;4994688;28;20216;-75
2022/06/01 16:19:28;;;;;;;6.75;6.25;;;25.60;53.80;;;;;;5012434;28;20222;-75
2022/06/01 16:21:54;;;;;;;6.05;5.32;;;25.10;53.70;;;;;;5000483;28;20675;-74
2022/06/01 16:24:28;;;;;;;5.30;4.97;;;25.60;53.00;;;;;;4994242;28;20275;-75
2022/06/01 16:26:54;;;;;;;5.40;5.10;;;25.40;52.60;;;;;;4995709;28;20207;-74
2022/06/01 16:29:20;;;;;;;6.20;4.95;;;25.00;53.70;;;;;;4995018;28;20180;-75
2022/06/01 16:31:47;;;;;;;5.45;4.97;;;24.80;54.30;;;;;;4993972;28;20184;-74
2022/06/01 16:34:16;;;;;;;5.20;4.15;;;24.50;54.10;;;;;;4988323;28;20812;-75
2022/06/01 16:36:43;;;;;;;4.20;3.85;;;24.40;55.70;;;;;;4982068;28;20275;-74
2022/06/01 16:39:11;;;;;;;5.07;4.47;;;24.30;56.10;;;;;;4981986;28;20219;-74
2022/06/01 16:41:45;;;;;;;6.97;6.40;;;24.10;56.90;;;;;;4992036;28;20180;-74